createdAt,value
2017-05-19T00:00:05.377Z,8.72
2017-05-19T00:02:33.666Z,7.82
2017-05-19T00:05:02.663Z,8.54
2017-05-19T00:07:31.660Z,8.02
2017-05-19T00:09:59.887Z,8.52
2017-05-19T00:12:28.120Z,7.84
2017-05-19T00:14:56.363Z,8.06
2017-05-19T00:17:24.624Z,8.16
2017-05-19T00:19:52.926Z,9.00
2017-05-19T00:22:21.902Z,8.36
2017-05-19T00:24:50.195Z,7.60
2017-05-19T00:27:19.194Z,8.38
2017-05-19T00:29:47.594Z,8.26
2017-05-19T00:32:15.839Z,8.58
2017-05-19T00:34:44.839Z,8.70
2017-05-19T00:37:13.831Z,8.42
2017-05-19T00:39:42.923Z,8.16
2017-05-19T00:42:11.897Z,8.48
2017-05-19T00:44:40.163Z,8.46
2017-05-19T00:47:08.472Z,7.46
2017-05-19T00:49:37.477Z,7.96
2017-05-19T00:52:05.767Z,8.32
2017-05-19T00:54:34.025Z,8.12
2017-05-19T00:57:03.032Z,8.66
2017-05-19T00:59:39.549Z,7.88
2017-05-19T01:02:07.865Z,8.00
2017-05-19T01:04:36.847Z,7.92
2017-05-19T01:07:05.970Z,7.72
2017-05-19T01:09:34.258Z,7.96
2017-05-19T01:12:02.487Z,8.00
2017-05-19T01:14:30.773Z,7.28
2017-05-19T01:16:59.781Z,7.68
2017-05-19T01:19:28.759Z,8.22
2017-05-19T01:21:57.760Z,8.60
2017-05-19T01:24:26.750Z,8.22
2017-05-19T01:26:55.036Z,8.06
2017-05-19T01:29:23.276Z,7.06
2017-05-19T01:31:51.596Z,9.20
2017-05-19T01:34:19.844Z,8.94
2017-05-19T01:36:48.128Z,7.90
2017-05-19T01:39:17.126Z,7.22
2017-05-19T01:41:46.119Z,8.20
2017-05-19T01:44:15.113Z,8.04
2017-05-19T01:46:44.115Z,7.94
2017-05-19T01:49:12.487Z,7.32
2017-05-19T01:51:41.477Z,7.20
2017-05-19T01:54:10.475Z,7.38
2017-05-19T01:56:39.579Z,7.82
2017-05-19T01:59:07.832Z,8.34
2017-05-19T02:01:36.831Z,8.38
2017-05-19T02:04:05.819Z,8.24
2017-05-19T02:06:34.808Z,8.36
2017-05-19T02:09:03.033Z,8.40
2017-05-19T02:11:31.268Z,7.94
2017-05-19T02:14:00.235Z,8.18
2017-05-19T02:16:28.485Z,8.60
2017-05-19T02:18:56.712Z,8.02
2017-05-19T02:21:25.686Z,7.90
2017-05-19T02:23:53.985Z,8.06
2017-05-19T02:26:22.988Z,8.34
2017-05-19T02:28:51.256Z,7.96
2017-05-19T02:31:19.545Z,8.92
2017-05-19T02:33:47.816Z,7.82
2017-05-19T02:36:16.104Z,7.34
2017-05-19T02:38:44.363Z,7.92
2017-05-19T02:41:13.331Z,8.40
2017-05-19T02:43:41.598Z,8.32
2017-05-19T02:46:09.904Z,7.94
2017-05-19T02:48:38.892Z,8.02
2017-05-19T02:51:07.897Z,8.54
2017-05-19T02:53:36.987Z,8.74
2017-05-19T02:56:05.948Z,8.54
2017-05-19T02:58:34.265Z,8.36
2017-05-19T03:01:02.540Z,7.92
2017-05-19T03:03:31.516Z,8.52
2017-05-19T03:06:00.492Z,8.48
2017-05-19T03:08:28.793Z,8.38
2017-05-19T03:10:57.072Z,8.82
2017-05-19T03:13:26.048Z,8.34
2017-05-19T03:15:54.341Z,8.00
2017-05-19T03:18:23.325Z,8.38
2017-05-19T03:20:52.348Z,7.98
2017-05-19T03:23:20.603Z,8.30
2017-05-19T03:25:49.571Z,9.46
2017-05-19T03:28:17.801Z,8.86
2017-05-19T03:30:46.039Z,8.46
2017-05-19T03:33:15.148Z,8.46
2017-05-19T03:35:44.131Z,9.20
2017-05-19T03:38:13.124Z,8.34
2017-05-19T03:40:42.100Z,8.04
2017-05-19T03:43:10.328Z,9.12
2017-05-19T03:45:38.676Z,9.24
2017-05-19T03:48:07.656Z,7.70
2017-05-19T03:50:35.976Z,8.36
2017-05-19T03:53:04.319Z,8.30
2017-05-19T03:55:33.285Z,8.34
2017-05-19T03:58:01.597Z,8.46
2017-05-19T04:00:30.583Z,8.24
2017-05-19T04:02:59.561Z,8.78
2017-05-19T04:05:27.859Z,8.60
2017-05-19T04:07:57.042Z,7.28
2017-05-19T04:10:25.274Z,7.78
2017-05-19T04:12:53.516Z,7.22
2017-05-19T04:15:21.772Z,11.92
2017-05-19T04:17:50.739Z,7.84
2017-05-19T04:20:19.045Z,6.44
2017-05-19T04:22:48.044Z,8.28
2017-05-19T04:25:17.052Z,8.28
2017-05-19T04:27:45.330Z,7.94
2017-05-19T04:30:13.793Z,8.18
2017-05-19T04:32:42.792Z,11.24
2017-05-19T04:35:12.236Z,8.62
2017-05-19T04:37:40.500Z,7.76
2017-05-19T04:40:08.724Z,8.14
2017-05-19T04:42:36.966Z,8.12
2017-05-19T04:45:06.332Z,7.94
2017-05-19T04:47:34.620Z,8.86
2017-05-19T04:50:02.871Z,7.60
2017-05-19T04:52:31.875Z,7.60
2017-05-19T04:55:00.146Z,7.98
2017-05-19T04:57:29.132Z,7.84
2017-05-19T04:59:58.120Z,7.90
2017-05-19T05:02:33.243Z,8.38
2017-05-19T05:05:01.475Z,7.68
2017-05-19T05:07:29.824Z,8.02
2017-05-19T05:09:58.911Z,7.36
2017-05-19T05:12:27.880Z,7.56
2017-05-19T05:14:56.181Z,7.88
2017-05-19T05:17:25.181Z,7.84
2017-05-19T05:19:54.172Z,8.12
2017-05-19T05:22:23.140Z,8.08
2017-05-19T05:24:51.437Z,8.56
2017-05-19T05:27:20.404Z,8.10
2017-05-19T05:29:48.657Z,7.16
2017-05-19T05:32:36.784Z,8.46
2017-05-19T05:35:05.479Z,7.86
2017-05-19T05:37:33.908Z,8.06
2017-05-19T05:40:02.903Z,7.50
2017-05-19T05:42:31.894Z,9.34
2017-05-19T05:45:40.776Z,8.78
2017-05-19T05:48:09.016Z,8.70
2017-05-19T05:50:37.284Z,8.50
2017-05-19T05:53:05.558Z,8.42
2017-05-19T05:55:33.826Z,8.80
2017-05-19T05:58:02.093Z,8.82
2017-05-19T06:00:30.379Z,8.42
2017-05-19T06:02:58.668Z,7.86
2017-05-19T06:05:27.497Z,8.90
2017-05-19T06:07:55.724Z,7.36
2017-05-19T06:10:23.992Z,8.40
2017-05-19T06:12:52.280Z,8.48
2017-05-19T06:15:20.556Z,8.22
2017-05-19T06:17:48.788Z,7.90
2017-05-19T06:20:17.035Z,8.90
2017-05-19T06:22:45.266Z,8.50
2017-05-19T06:25:13.556Z,9.06
2017-05-19T06:27:41.838Z,9.02
2017-05-19T06:30:10.121Z,8.30
2017-05-19T06:32:38.398Z,8.02
2017-05-19T06:35:07.017Z,8.82
2017-05-19T06:37:35.348Z,8.34
2017-05-19T06:40:03.591Z,8.62
2017-05-19T06:42:31.844Z,8.44
2017-05-19T06:45:00.169Z,7.68
2017-05-19T06:47:28.449Z,10.72
2017-05-19T06:49:56.732Z,8.50
2017-05-19T06:52:25.004Z,8.52
2017-05-19T06:54:53.261Z,10.08
2017-05-19T06:57:21.577Z,8.74
2017-05-19T06:59:49.839Z,8.52
2017-05-19T07:02:18.113Z,8.16
2017-05-19T07:04:46.395Z,9.48
2017-05-19T07:07:14.641Z,8.92
2017-05-19T07:09:43.171Z,8.86
2017-05-19T07:12:11.428Z,8.82
2017-05-19T07:14:39.662Z,8.72
2017-05-19T07:17:07.976Z,8.02
2017-05-19T07:19:36.243Z,8.06
2017-05-19T07:22:04.529Z,8.96
2017-05-19T07:24:32.805Z,8.72
2017-05-19T07:27:01.063Z,8.10
2017-05-19T07:29:29.373Z,8.58
2017-05-19T07:31:57.935Z,9.70
2017-05-19T07:34:26.225Z,8.10
2017-05-19T07:36:54.510Z,9.34
2017-05-19T07:39:22.873Z,9.54
2017-05-19T07:41:51.114Z,9.00
2017-05-19T07:44:19.423Z,8.78
2017-05-19T07:46:47.712Z,8.48
2017-05-19T07:49:15.996Z,8.88
2017-05-19T07:51:44.255Z,8.88
2017-05-19T07:54:12.531Z,9.50
2017-05-19T07:56:40.773Z,8.70
2017-05-19T07:59:09.129Z,7.48
2017-05-19T08:01:37.411Z,6.70
2017-05-19T08:04:05.731Z,6.34
2017-05-19T08:06:33.984Z,6.64
2017-05-19T08:09:02.310Z,6.64
2017-05-19T08:11:30.564Z,6.46
2017-05-19T08:14:04.985Z,6.02
2017-05-19T08:16:33.266Z,6.80
2017-05-19T08:19:01.503Z,5.68
2017-05-19T08:21:29.820Z,6.04
2017-05-19T08:23:58.090Z,6.46
2017-05-19T08:26:26.367Z,6.00
2017-05-19T08:28:54.615Z,5.94
2017-05-19T08:31:22.851Z,6.20
2017-05-19T08:33:51.092Z,5.96
2017-05-19T08:36:19.423Z,6.20
2017-05-19T08:38:47.745Z,5.92
2017-05-19T08:41:16.032Z,6.00
2017-05-19T08:43:44.277Z,6.22
2017-05-19T08:46:12.527Z,5.56
2017-05-19T08:48:40.755Z,5.46
2017-05-19T08:51:09.027Z,5.48
2017-05-19T08:53:37.253Z,5.82
2017-05-19T08:56:05.492Z,4.72
2017-05-19T08:58:33.769Z,6.44
2017-05-19T09:01:02.029Z,5.70
2017-05-19T09:03:30.305Z,5.54
2017-05-19T09:05:58.556Z,6.38
2017-05-19T09:08:26.859Z,5.70
2017-05-19T09:10:55.140Z,5.82
2017-05-19T09:13:23.421Z,5.64
2017-05-19T09:15:51.651Z,5.56
2017-05-19T09:18:19.904Z,5.76
2017-05-19T09:20:48.132Z,5.06
2017-05-19T09:23:16.516Z,4.72
2017-05-19T09:25:44.791Z,6.26
2017-05-19T09:28:13.077Z,6.20
2017-05-19T09:30:41.332Z,6.46
2017-05-19T09:33:09.619Z,6.02
2017-05-19T09:35:37.903Z,6.28
2017-05-19T09:38:06.146Z,6.16
2017-05-19T09:40:34.399Z,5.66
2017-05-19T09:43:02.740Z,5.76
2017-05-19T09:45:31.021Z,6.20
2017-05-19T09:48:03.688Z,6.20
2017-05-19T09:50:31.965Z,6.40
2017-05-19T09:53:00.194Z,6.12
2017-05-19T09:55:28.515Z,6.74
2017-05-19T09:57:56.768Z,5.78
2017-05-19T10:00:25.017Z,6.52
2017-05-19T10:02:53.272Z,7.18
2017-05-19T10:05:22.269Z,6.06
2017-05-19T10:07:50.507Z,5.62
2017-05-19T10:10:18.843Z,5.46
2017-05-19T10:12:47.118Z,5.02
2017-05-19T10:15:15.465Z,5.28
2017-05-19T10:17:43.713Z,5.26
2017-05-19T10:20:11.959Z,4.28
2017-05-19T10:22:40.205Z,4.92
2017-05-19T10:25:08.540Z,4.60
2017-05-19T10:27:36.847Z,4.98
2017-05-19T10:30:05.117Z,5.10
2017-05-19T10:32:33.384Z,5.50
2017-05-19T10:35:01.643Z,4.84
2017-05-19T10:37:29.945Z,5.70
2017-05-19T10:39:58.199Z,5.58
2017-05-19T10:42:26.452Z,6.08
2017-05-19T10:44:54.708Z,6.00
2017-05-19T10:47:22.961Z,5.42
2017-05-19T10:49:51.208Z,5.84
2017-05-19T10:52:19.492Z,5.98
2017-05-19T10:54:47.850Z,5.70
2017-05-19T10:57:16.135Z,5.58
2017-05-19T10:59:44.424Z,5.60
2017-05-19T11:02:12.714Z,6.36
2017-05-19T11:04:40.974Z,6.20
2017-05-19T11:07:09.283Z,5.96
2017-05-19T11:09:37.623Z,5.82
2017-05-19T11:12:05.896Z,5.42
2017-05-19T11:14:34.177Z,6.26
2017-05-19T11:17:02.430Z,5.60
2017-05-19T11:19:30.755Z,5.22
2017-05-19T11:21:58.996Z,5.94
2017-05-19T11:24:27.300Z,5.18
2017-05-19T11:26:55.704Z,5.70
2017-05-19T11:29:30.536Z,6.12
2017-05-19T11:31:58.806Z,5.16
2017-05-19T11:34:27.035Z,5.62
2017-05-19T11:36:55.332Z,5.56
2017-05-19T11:39:23.570Z,4.54
2017-05-19T11:41:51.867Z,5.58
2017-05-19T11:44:20.253Z,4.80
2017-05-19T11:46:48.524Z,4.40
2017-05-19T11:49:16.772Z,5.50
2017-05-19T11:51:45.092Z,5.68
2017-05-19T11:54:13.468Z,4.88
2017-05-19T11:56:41.754Z,5.06
2017-05-19T11:59:10.012Z,4.54
2017-05-19T12:01:38.283Z,4.86
2017-05-19T12:04:06.565Z,5.20
2017-05-19T12:06:34.801Z,5.50
2017-05-19T12:09:03.057Z,5.18
2017-05-19T12:11:41.577Z,5.00
2017-05-19T12:14:09.912Z,4.24
2017-05-19T12:16:38.195Z,5.50
2017-05-19T12:19:06.468Z,5.12
2017-05-19T12:21:34.737Z,4.88
2017-05-19T12:24:02.988Z,5.36
2017-05-19T12:26:31.288Z,4.70
2017-05-19T12:28:59.559Z,5.40
2017-05-19T12:31:27.863Z,5.82
2017-05-19T12:33:56.092Z,5.06
2017-05-19T12:36:24.337Z,4.84
2017-05-19T12:38:52.675Z,5.10
2017-05-19T12:41:20.952Z,4.74
2017-05-19T12:43:49.221Z,4.72
2017-05-19T12:46:17.468Z,4.32
2017-05-19T12:48:45.811Z,5.30
2017-05-19T12:51:14.171Z,4.86
2017-05-19T12:53:42.420Z,4.82
2017-05-19T12:56:10.684Z,4.72
2017-05-19T12:58:38.993Z,4.74
2017-05-19T13:04:01.121Z,4.58
2017-05-19T13:06:29.416Z,4.84
2017-05-19T13:08:57.706Z,4.54
2017-05-19T13:11:25.986Z,4.80
2017-05-19T13:14:00.403Z,4.98
2017-05-19T13:16:28.773Z,5.08
2017-05-19T13:18:57.044Z,4.62
2017-05-19T13:21:25.284Z,5.06
2017-05-19T13:23:53.608Z,4.30
2017-05-19T13:26:21.871Z,4.72
2017-05-19T13:28:50.124Z,4.94
2017-05-19T13:31:18.427Z,4.70
2017-05-19T13:33:46.750Z,4.60
2017-05-19T13:36:15.099Z,4.26
2017-05-19T13:38:43.356Z,5.02
2017-05-19T13:41:11.622Z,4.44
2017-05-19T13:43:39.848Z,4.38
2017-05-19T13:46:08.192Z,4.20
2017-05-19T13:48:36.456Z,4.78
2017-05-19T13:51:04.708Z,4.90
2017-05-19T13:53:33.027Z,4.34
2017-05-19T13:56:01.287Z,4.14
2017-05-19T13:58:29.583Z,4.78
2017-05-19T14:01:11.164Z,4.60
2017-05-19T14:03:39.436Z,4.46
2017-05-19T14:06:07.807Z,4.08
2017-05-19T14:08:36.096Z,4.16
2017-05-19T14:11:04.368Z,5.00
2017-05-19T14:13:32.641Z,5.20
2017-05-19T14:16:00.928Z,4.18
2017-05-19T14:18:29.205Z,4.66
2017-05-19T14:20:57.430Z,4.68
2017-05-19T14:23:25.681Z,4.60
2017-05-19T14:25:53.925Z,4.44
2017-05-19T14:28:21.481Z,4.70
2017-05-19T14:30:49.758Z,4.26
2017-05-19T14:33:17.998Z,4.12
2017-05-19T14:35:46.312Z,4.12
2017-05-19T14:38:14.630Z,4.50
2017-05-19T14:40:42.974Z,4.12
2017-05-19T14:43:11.211Z,4.40
2017-05-19T14:45:39.457Z,4.50
2017-05-19T14:48:07.800Z,3.96
2017-05-19T14:50:36.083Z,3.90
2017-05-19T14:53:04.343Z,4.08
2017-05-19T14:55:32.575Z,4.20
2017-05-19T14:58:00.900Z,4.22
2017-05-19T15:00:29.184Z,4.18
2017-05-19T15:02:57.552Z,3.84
2017-05-19T15:05:25.796Z,3.88
2017-05-19T15:07:54.148Z,4.06
2017-05-19T15:10:22.392Z,4.38
2017-05-19T15:12:50.777Z,4.20
2017-05-19T15:15:19.023Z,3.52
2017-05-19T15:17:47.316Z,4.52
2017-05-19T15:20:15.604Z,4.30
2017-05-19T15:22:43.862Z,4.30
2017-05-19T15:25:12.125Z,4.06
2017-05-19T15:27:40.431Z,4.40
2017-05-19T15:30:08.714Z,2.24
2017-05-19T15:35:30.580Z,2.08
2017-05-19T15:37:58.921Z,2.62
2017-05-19T15:40:27.164Z,2.60
2017-05-19T15:42:55.461Z,2.62
2017-05-19T15:45:23.751Z,3.00
2017-05-19T15:47:51.994Z,2.58
2017-05-19T15:50:20.236Z,2.88
2017-05-19T15:52:48.600Z,2.60
2017-05-19T15:55:16.963Z,2.52
2017-05-19T15:57:45.220Z,2.20
2017-05-19T16:00:13.509Z,2.76
2017-05-19T16:02:41.781Z,2.66
2017-05-19T16:05:11.180Z,2.90
2017-05-19T16:07:39.565Z,2.58
2017-05-19T16:10:07.848Z,2.90
2017-05-19T16:12:36.091Z,2.30
2017-05-19T16:15:04.392Z,2.56
2017-05-19T16:17:32.625Z,2.74
2017-05-19T16:20:00.942Z,3.06
2017-05-19T16:22:32.875Z,3.02
2017-05-19T16:25:01.132Z,3.54
2017-05-19T16:27:29.428Z,2.98
2017-05-19T16:29:57.747Z,2.90
2017-05-19T16:32:26.004Z,2.62
2017-05-19T16:34:54.271Z,3.14
2017-05-19T16:37:22.569Z,3.10
2017-05-19T16:39:50.847Z,2.92
2017-05-19T16:42:19.123Z,2.96
2017-05-19T16:44:47.406Z,3.08
2017-05-19T16:47:15.696Z,2.92
2017-05-19T16:49:43.940Z,2.72
2017-05-19T16:52:12.242Z,2.48
2017-05-19T16:54:50.276Z,2.42
2017-05-19T16:57:18.532Z,2.60
2017-05-19T16:59:46.783Z,2.54
2017-05-19T17:02:21.204Z,2.48
2017-05-19T17:04:49.487Z,2.56
2017-05-19T17:07:17.724Z,2.56
2017-05-19T17:09:46.036Z,2.24
2017-05-19T17:12:14.316Z,2.90
2017-05-19T17:14:42.583Z,2.50
2017-05-19T17:17:10.883Z,2.80
2017-05-19T17:19:39.120Z,2.76
2017-05-19T17:22:07.427Z,2.66
2017-05-19T17:24:35.692Z,2.18
2017-05-19T17:27:03.963Z,2.52
2017-05-19T17:29:32.243Z,3.00
2017-05-19T17:32:00.504Z,2.62
2017-05-19T17:34:28.800Z,2.32
2017-05-19T17:36:57.079Z,2.70
2017-05-19T17:39:25.344Z,2.62
2017-05-19T17:41:53.603Z,4.22
2017-05-19T17:44:21.892Z,2.66
2017-05-19T17:46:50.198Z,2.18
2017-05-19T17:49:18.596Z,2.24
2017-05-19T17:51:46.839Z,2.86
2017-05-19T17:54:15.108Z,2.20
2017-05-19T17:56:43.356Z,2.40
2017-05-19T17:59:11.627Z,2.34
2017-05-19T18:01:39.942Z,2.78
2017-05-19T18:04:08.226Z,2.30
2017-05-19T18:06:36.475Z,2.34
2017-05-19T18:09:04.709Z,2.40
2017-05-19T18:11:32.956Z,2.46
2017-05-19T18:14:01.223Z,2.20
2017-05-19T18:16:29.496Z,2.18
2017-05-19T18:19:04.635Z,2.24
2017-05-19T18:21:32.883Z,2.94
2017-05-19T18:24:01.190Z,2.08
2017-05-19T18:26:29.434Z,2.50
2017-05-19T18:28:57.739Z,2.78
2017-05-19T18:31:26.028Z,2.18
2017-05-19T18:33:54.291Z,2.10
2017-05-19T18:36:22.592Z,2.14
2017-05-19T18:38:50.854Z,2.42
2017-05-19T18:41:19.082Z,2.58
2017-05-19T18:43:47.397Z,2.26
2017-05-19T18:46:15.660Z,2.06
2017-05-19T18:48:44.065Z,2.16
2017-05-19T18:51:12.327Z,2.12
2017-05-19T18:53:40.603Z,2.20
2017-05-19T18:56:08.912Z,2.30
2017-05-19T18:58:37.261Z,2.24
2017-05-19T19:01:05.538Z,2.20
2017-05-19T19:03:33.791Z,1.98
2017-05-19T19:06:02.097Z,2.12
2017-05-19T19:08:30.377Z,2.22
2017-05-19T19:10:58.681Z,2.38
2017-05-19T19:13:26.915Z,2.60
2017-05-19T19:15:55.171Z,2.32
2017-05-19T19:18:23.421Z,2.46
2017-05-19T19:20:51.763Z,2.00
2017-05-19T19:23:20.032Z,2.64
2017-05-19T19:25:48.267Z,2.56
2017-05-19T19:28:16.568Z,2.02
2017-05-19T19:30:44.836Z,2.00
2017-05-19T19:33:13.127Z,2.26
2017-05-19T19:35:41.395Z,2.14
2017-05-19T19:38:09.675Z,2.02
2017-05-19T19:40:37.939Z,2.58
2017-05-19T19:43:06.235Z,2.50
2017-05-19T19:45:34.531Z,2.34
2017-05-19T19:48:02.789Z,3.96
2017-05-19T19:50:31.064Z,2.58
2017-05-19T19:52:59.329Z,1.70
2017-05-19T19:55:27.615Z,1.92
2017-05-19T19:57:55.967Z,2.30
2017-05-19T20:00:24.288Z,2.46
2017-05-19T20:02:52.657Z,2.20
2017-05-19T20:05:20.929Z,2.34
2017-05-19T20:07:49.172Z,2.28
2017-05-19T20:10:17.399Z,2.10
2017-05-19T20:12:45.639Z,2.32
2017-05-19T20:15:13.876Z,2.00
2017-05-19T20:17:42.221Z,2.74
2017-05-19T20:20:10.480Z,2.14
2017-05-19T20:22:38.770Z,2.04
2017-05-19T20:25:07.036Z,1.80
2017-05-19T20:27:35.272Z,2.26
2017-05-19T20:30:03.599Z,2.88
2017-05-19T20:32:31.869Z,2.32
2017-05-19T20:35:00.246Z,2.32
2017-05-19T20:37:28.483Z,2.18
2017-05-19T20:39:56.749Z,2.10
2017-05-19T20:42:25.071Z,2.20
2017-05-19T20:44:53.323Z,2.44
2017-05-19T20:47:21.579Z,2.06
2017-05-19T20:49:49.829Z,3.32
2017-05-19T20:52:18.091Z,2.18
2017-05-19T20:54:46.330Z,1.86
2017-05-19T20:57:14.560Z,2.50
2017-05-19T20:59:42.814Z,2.02
2017-05-19T21:02:11.061Z,1.90
2017-05-19T21:04:39.321Z,2.38
2017-05-19T21:07:07.552Z,1.96
2017-05-19T21:09:35.799Z,2.24
2017-05-19T21:12:04.023Z,2.62
2017-05-19T21:14:32.269Z,2.08
2017-05-19T21:17:00.524Z,2.50
2017-05-19T21:19:28.808Z,2.38
2017-05-19T21:21:57.059Z,2.04
2017-05-19T21:24:25.354Z,2.16
2017-05-19T21:26:53.607Z,2.42
2017-05-19T21:29:21.839Z,2.44
2017-05-19T21:31:50.085Z,2.10
2017-05-19T21:34:18.359Z,2.22
2017-05-19T21:36:46.737Z,2.78
2017-05-19T21:39:14.975Z,2.10
2017-05-19T21:41:43.291Z,2.30
2017-05-19T21:44:11.571Z,2.00
2017-05-19T21:46:39.817Z,2.62
2017-05-19T21:49:08.072Z,2.18
2017-05-19T21:51:36.396Z,2.08
2017-05-19T21:54:04.673Z,2.28
2017-05-19T21:56:32.943Z,2.38
2017-05-19T21:59:01.226Z,2.72
2017-05-19T22:01:29.508Z,1.86
2017-05-19T22:03:57.772Z,1.94
2017-05-19T22:06:26.055Z,2.26
2017-05-19T22:08:54.344Z,2.42
2017-05-19T22:11:22.583Z,2.30
2017-05-19T22:13:50.852Z,2.10
2017-05-19T22:16:19.166Z,1.80
2017-05-19T22:18:47.441Z,2.94
2017-05-19T22:21:15.711Z,2.26
2017-05-19T22:23:43.988Z,2.08
2017-05-19T22:26:12.264Z,2.54
2017-05-19T22:28:40.495Z,2.54
2017-05-19T22:31:08.737Z,2.36
2017-05-19T22:33:36.998Z,2.40
2017-05-19T22:36:05.283Z,2.28
2017-05-19T22:38:33.551Z,2.24
2017-05-19T22:41:01.925Z,2.00
2017-05-19T22:43:30.199Z,1.82
2017-05-19T22:45:58.450Z,1.78
2017-05-19T22:48:26.750Z,2.10
2017-05-19T22:50:55.022Z,2.64
2017-05-19T22:53:23.277Z,2.16
2017-05-19T22:55:51.516Z,2.28
2017-05-19T22:58:19.852Z,2.00
2017-05-19T23:00:48.076Z,2.00
2017-05-19T23:03:16.403Z,2.14
2017-05-19T23:05:44.652Z,2.30
2017-05-19T23:08:12.931Z,2.34
2017-05-19T23:10:41.248Z,2.16
2017-05-19T23:13:09.620Z,2.30
2017-05-19T23:15:37.895Z,2.50
2017-05-19T23:18:06.173Z,2.70
2017-05-19T23:20:34.427Z,2.74
2017-05-19T23:23:02.728Z,2.28
2017-05-19T23:25:30.995Z,2.32
2017-05-19T23:27:59.230Z,1.98
2017-05-19T23:30:27.575Z,2.24
2017-05-19T23:32:55.815Z,2.56
2017-05-19T23:35:24.315Z,2.52
2017-05-19T23:37:53.491Z,2.36
2017-05-19T23:40:21.791Z,2.40
2017-05-19T23:42:50.060Z,2.26
2017-05-19T23:45:31.763Z,2.16
2017-05-19T23:48:00.021Z,2.20
2017-05-19T23:50:28.305Z,2.14
2017-05-19T23:52:56.588Z,1.90
2017-05-19T23:55:24.871Z,2.20
2017-05-19T23:57:53.181Z,2.18
